sensor_id;sensor_type;location;lat;lon;timestamp;pressure;altitude;pressure_sealevel;temperature;humidity
14902;BME280;7542;49.078;9.194;2022-09-17T00:00:54;98254.66;;;18.19;50.05
14902;BME280;7542;49.078;9.194;2022-09-17T00:01:55;98256.50;;;18.18;49.80
14902;BME280;7542;49.078;9.194;2022-09-17T00:02:57;98259.97;;;18.19;49.89
14902;BME280;7542;49.078;9.194;2022-09-17T00:04:00;98257.53;;;18.17;49.94
14902;BME280;7542;49.078;9.194;2022-09-17T00:05:05;98260.19;;;18.17;50.21
14902;BME280;7542;49.078;9.194;2022-09-17T00:06:10;98260.19;;;18.17;49.73
14902;BME280;7542;49.078;9.194;2022-09-17T00:07:12;98263.88;;;18.16;50.03
14902;BME280;7542;49.078;9.194;2022-09-17T00:08:14;98258.81;;;18.15;49.94
14902;BME280;7542;49.078;9.194;2022-09-17T00:09:16;98263.31;;;18.14;49.67
14902;BME280;7542;49.078;9.194;2022-09-17T00:10:19;98264.09;;;18.15;49.69
14902;BME280;7542;49.078;9.194;2022-09-17T00:11:25;98262.50;;;18.14;50.03
14902;BME280;7542;49.078;9.194;2022-09-17T00:12:28;98266.19;;;18.13;49.87
14902;BME280;7542;49.078;9.194;2022-09-17T00:13:29;98268.84;;;18.13;49.90
14902;BME280;7542;49.078;9.194;2022-09-17T00:14:31;98264.34;;;18.13;50.13
14902;BME280;7542;49.078;9.194;2022-09-17T00:15:44;98269.41;;;18.15;49.94
14902;BME280;7542;49.078;9.194;2022-09-17T00:16:47;98257.63;;;18.11;49.96
14902;BME280;7542;49.078;9.194;2022-09-17T00:17:55;98263.72;;;18.11;49.87
14902;BME280;7542;49.078;9.194;2022-09-17T00:19:00;98262.13;;;18.10;49.50
14902;BME280;7542;49.078;9.194;2022-09-17T00:20:04;98257.84;;;18.09;49.36
14902;BME280;7542;49.078;9.194;2022-09-17T00:21:14;98257.63;;;18.11;49.54
14902;BME280;7542;49.078;9.194;2022-09-17T00:22:17;98261.53;;;18.08;49.84
14902;BME280;7542;49.078;9.194;2022-09-17T00:23:19;98257.28;;;18.07;49.48
14902;BME280;7542;49.078;9.194;2022-09-17T00:24:20;98265.22;;;18.07;49.68
14902;BME280;7542;49.078;9.194;2022-09-17T00:25:23;98263.03;;;18.04;49.49
14902;BME280;7542;49.078;9.194;2022-09-17T00:26:26;98266.72;;;18.03;49.55
14902;BME280;7542;49.078;9.194;2022-09-17T00:27:29;98266.72;;;18.03;49.24
14902;BME280;7542;49.078;9.194;2022-09-17T00:28:31;98265.09;;;18.02;49.44
14902;BME280;7542;49.078;9.194;2022-09-17T00:29:33;98265.09;;;18.02;49.26
14902;BME280;7542;49.078;9.194;2022-09-17T00:30:40;98261.84;;;18.00;48.99
14902;BME280;7542;49.078;9.194;2022-09-17T00:31:42;98266.34;;;18.00;49.63
14902;BME280;7542;49.078;9.194;2022-09-17T00:32:44;98271.66;;;18.00;49.42
14902;BME280;7542;49.078;9.194;2022-09-17T00:33:46;98266.13;;;18.01;49.38
14902;BME280;7542;49.078;9.194;2022-09-17T00:34:49;98266.34;;;18.00;49.48
14902;BME280;7542;49.078;9.194;2022-09-17T00:36:01;98266.13;;;18.01;49.57
14902;BME280;7542;49.078;9.194;2022-09-17T00:37:03;98273.25;;;18.01;49.42
14902;BME280;7542;49.078;9.194;2022-09-17T00:38:05;98267.38;;;17.99;49.66
14902;BME280;7542;49.078;9.194;2022-09-17T00:39:10;98267.38;;;17.99;49.36
14902;BME280;7542;49.078;9.194;2022-09-17T00:40:12;98269.00;;;18.00;49.82
14902;BME280;7542;49.078;9.194;2022-09-17T00:41:14;98266.56;;;17.98;49.40
14902;BME280;7542;49.078;9.194;2022-09-17T00:42:18;98260.47;;;17.98;50.26
14902;BME280;7542;49.078;9.194;2022-09-17T00:43:46;98258.97;;;18.02;49.73
14902;BME280;7542;49.078;9.194;2022-09-17T00:44:55;98265.53;;;17.99;49.67
14902;BME280;7542;49.078;9.194;2022-09-17T00:45:58;98260.69;;;17.96;49.54
14902;BME280;7542;49.078;9.194;2022-09-17T00:47:00;98260.69;;;17.96;49.82
14902;BME280;7542;49.078;9.194;2022-09-17T00:48:05;98264.38;;;17.95;49.33
14902;BME280;7542;49.078;9.194;2022-09-17T00:49:15;98268.66;;;17.96;49.44
14902;BME280;7542;49.078;9.194;2022-09-17T00:50:29;98263.13;;;17.98;49.96
14902;BME280;7542;49.078;9.194;2022-09-17T00:51:41;98266.00;;;17.96;49.58
14902;BME280;7542;49.078;9.194;2022-09-17T00:52:53;98262.31;;;17.97;49.93
14902;BME280;7542;49.078;9.194;2022-09-17T00:53:56;98265.41;;;17.94;49.81
14902;BME280;7542;49.078;9.194;2022-09-17T00:56:30;98275.00;;;17.95;49.38
14902;BME280;7542;49.078;9.194;2022-09-17T00:57:32;98265.25;;;17.89;49.71
14902;BME280;7542;49.078;9.194;2022-09-17T00:58:36;98266.06;;;17.89;49.78
14902;BME280;7542;49.078;9.194;2022-09-17T00:59:42;98266.53;;;17.86;49.90
14902;BME280;7542;49.078;9.194;2022-09-17T01:00:43;98269.19;;;17.86;49.83
14902;BME280;7542;49.078;9.194;2022-09-17T01:01:48;98271.84;;;17.86;49.75
14902;BME280;7542;49.078;9.194;2022-09-17T01:02:52;98278.19;;;17.85;49.54
14902;BME280;7542;49.078;9.194;2022-09-17T01:03:54;98273.09;;;17.84;49.73
14902;BME280;7542;49.078;9.194;2022-09-17T01:04:55;98280.25;;;17.83;49.79
14902;BME280;7542;49.078;9.194;2022-09-17T01:06:21;98275.06;;;17.88;49.24
14902;BME280;7542;49.078;9.194;2022-09-17T01:16:32;98278.41;;;17.84;49.27
14902;BME280;7542;49.078;9.194;2022-09-17T01:29:19;98284.91;;;17.70;49.60
14902;BME280;7542;49.078;9.194;2022-09-17T01:32:41;98284.28;;;17.67;49.04
14902;BME280;7542;49.078;9.194;2022-09-17T01:35:36;98288.75;;;17.67;49.59
14902;BME280;7542;49.078;9.194;2022-09-17T01:37:07;98276.78;;;17.64;49.25
14902;BME280;7542;49.078;9.194;2022-09-17T01:38:32;98283.09;;;17.63;49.56
14902;BME280;7542;49.078;9.194;2022-09-17T01:41:42;98281.63;;;17.67;49.21
14902;BME280;7542;49.078;9.194;2022-09-17T01:42:57;98283.56;;;17.60;49.77
14902;BME280;7542;49.078;9.194;2022-09-17T01:44:14;98285.41;;;17.60;49.12
14902;BME280;7542;49.078;9.194;2022-09-17T01:45:39;98283.56;;;17.60;49.88
14902;BME280;7542;49.078;9.194;2022-09-17T01:46:52;98283.16;;;17.57;49.25
14902;BME280;7542;49.078;9.194;2022-09-17T01:48:03;98292.97;;;17.56;49.82
14902;BME280;7542;49.078;9.194;2022-09-17T01:49:10;98288.94;;;17.54;49.47
14902;BME280;7542;49.078;9.194;2022-09-17T01:51:50;98296.66;;;17.55;49.72
14902;BME280;7542;49.078;9.194;2022-09-17T01:52:55;98292.38;;;17.54;49.96
14902;BME280;7542;49.078;9.194;2022-09-17T01:55:31;98293.78;;;17.57;49.64
14902;BME280;7542;49.078;9.194;2022-09-17T01:57:15;98294.16;;;17.60;49.28
14902;BME280;7542;49.078;9.194;2022-09-17T01:58:48;98291.50;;;17.60;49.18
14902;BME280;7542;49.078;9.194;2022-09-17T02:00:07;98287.88;;;17.55;49.71
14902;BME280;7542;49.078;9.194;2022-09-17T02:01:16;98293.41;;;17.53;50.01
14902;BME280;7542;49.078;9.194;2022-09-17T02:02:29;98291.81;;;17.52;50.24
14902;BME280;7542;49.078;9.194;2022-09-17T02:03:42;98295.25;;;17.53;50.00
14902;BME280;7542;49.078;9.194;2022-09-17T02:04:58;98299.31;;;17.55;49.37
14902;BME280;7542;49.078;9.194;2022-09-17T02:06:12;98293.41;;;17.53;49.15
14902;BME280;7542;49.078;9.194;2022-09-17T02:07:19;98297.31;;;17.51;49.93
14902;BME280;7542;49.078;9.194;2022-09-17T02:08:28;98299.16;;;17.50;50.09
14902;BME280;7542;49.078;9.194;2022-09-17T02:09:47;98297.91;;;17.53;49.47
14902;BME280;7542;49.078;9.194;2022-09-17T02:12:14;98304.47;;;17.50;49.50
14902;BME280;7542;49.078;9.194;2022-09-17T02:13:25;98301.25;;;17.48;50.26
14902;BME280;7542;49.078;9.194;2022-09-17T02:14:37;98302.84;;;17.49;49.95
14902;BME280;7542;49.078;9.194;2022-09-17T02:15:47;98299.41;;;17.49;49.88
14902;BME280;7542;49.078;9.194;2022-09-17T02:16:57;98298.78;;;17.47;49.92
14902;BME280;7542;49.078;9.194;2022-09-17T02:18:38;98304.03;;;17.53;50.15
14902;BME280;7542;49.078;9.194;2022-09-17T02:19:43;98302.25;;;17.47;49.59
14902;BME280;7542;49.078;9.194;2022-09-17T02:20:55;98299.81;;;17.46;50.28
14902;BME280;7542;49.078;9.194;2022-09-17T02:23:28;98306.53;;;17.48;49.70
14902;BME280;7542;49.078;9.194;2022-09-17T02:24:45;98307.34;;;17.49;49.69
14902;BME280;7542;49.078;9.194;2022-09-17T02:25:59;98305.94;;;17.46;49.62
14902;BME280;7542;49.078;9.194;2022-09-17T02:28:55;98299.97;;;17.51;49.66
14902;BME280;7542;49.078;9.194;2022-09-17T02:29:59;98300.84;;;17.45;50.24
14902;BME280;7542;49.078;9.194;2022-09-17T02:31:01;98301.28;;;17.42;50.09
14902;BME280;7542;49.078;9.194;2022-09-17T02:32:04;98300.50;;;17.41;50.00
14902;BME280;7542;49.078;9.194;2022-09-17T02:33:11;98296.81;;;17.42;49.79
14902;BME280;7542;49.078;9.194;2022-09-17T02:34:14;98301.28;;;17.42;50.44
14902;BME280;7542;49.078;9.194;2022-09-17T02:35:16;98303.72;;;17.43;50.59
14902;BME280;7542;49.078;9.194;2022-09-17T02:36:18;98300.50;;;17.41;49.89
14902;BME280;7542;49.078;9.194;2022-09-17T02:37:20;98301.88;;;17.44;50.57
14902;BME280;7542;49.078;9.194;2022-09-17T02:38:28;98300.03;;;17.44;49.76
14902;BME280;7542;49.078;9.194;2022-09-17T02:39:30;98296.00;;;17.42;50.12
14902;BME280;7542;49.078;9.194;2022-09-17T02:40:46;98301.66;;;17.45;49.70
14902;BME280;7542;49.078;9.194;2022-09-17T02:46:31;98304.09;;;17.47;49.70
14902;BME280;7542;49.078;9.194;2022-09-17T02:48:08;98295.94;;;17.48;49.75
14902;BME280;7542;49.078;9.194;2022-09-17T02:54:27;98302.25;;;17.47;49.53
14902;BME280;7542;49.078;9.194;2022-09-17T02:56:13;98303.88;;;17.48;49.64
14902;BME280;7542;49.078;9.194;2022-09-17T02:57:23;98300.72;;;17.39;50.18
14902;BME280;7542;49.078;9.194;2022-09-17T02:58:49;98296.81;;;17.42;49.67
14902;BME280;7542;49.078;9.194;2022-09-17T03:00:14;98298.41;;;17.43;50.02
14902;BME280;7542;49.078;9.194;2022-09-17T03:01:31;98300.50;;;17.41;49.76
14902;BME280;7542;49.078;9.194;2022-09-17T03:03:44;98308.88;;;17.38;49.88
14902;BME280;7542;49.078;9.194;2022-09-17T03:04:50;98304.81;;;17.35;50.35
14902;BME280;7542;49.078;9.194;2022-09-17T03:05:53;98302.16;;;17.35;50.35
14902;BME280;7542;49.078;9.194;2022-09-17T03:06:55;98309.09;;;17.36;50.52
14902;BME280;7542;49.078;9.194;2022-09-17T03:08:00;98305.63;;;17.36;49.73
14902;BME280;7542;49.078;9.194;2022-09-17T03:09:02;98293.41;;;17.35;50.53
14902;BME280;7542;49.078;9.194;2022-09-17T03:10:05;98304.81;;;17.35;49.99
14902;BME280;7542;49.078;9.194;2022-09-17T03:11:10;98296.06;;;17.35;49.88
14902;BME280;7542;49.078;9.194;2022-09-17T03:12:14;98296.06;;;17.35;50.01
14902;BME280;7542;49.078;9.194;2022-09-17T03:13:15;98294.44;;;17.34;49.72
14902;BME280;7542;49.078;9.194;2022-09-17T03:14:17;98295.25;;;17.34;49.75
14902;BME280;7542;49.078;9.194;2022-09-17T03:15:21;98297.09;;;17.34;50.14
14902;BME280;7542;49.078;9.194;2022-09-17T03:16:23;98287.53;;;17.33;49.60
14902;BME280;7542;49.078;9.194;2022-09-17T03:17:25;98292.00;;;17.32;49.86
14902;BME280;7542;49.078;9.194;2022-09-17T03:18:26;98286.72;;;17.32;50.22
14902;BME280;7542;49.078;9.194;2022-09-17T03:19:28;98287.53;;;17.33;50.02
14902;BME280;7542;49.078;9.194;2022-09-17T03:20:30;98298.13;;;17.33;50.29
14902;BME280;7542;49.078;9.194;2022-09-17T03:21:32;98294.66;;;17.32;50.09
14902;BME280;7542;49.078;9.194;2022-09-17T03:22:34;98297.31;;;17.32;50.42
14902;BME280;7542;49.078;9.194;2022-09-17T03:23:36;98297.31;;;17.32;49.78
14902;BME280;7542;49.078;9.194;2022-09-17T03:24:38;98299.97;;;17.32;49.88
14902;BME280;7542;49.078;9.194;2022-09-17T03:25:39;98290.16;;;17.33;50.09
14902;BME280;7542;49.078;9.194;2022-09-17T03:26:41;98299.97;;;17.32;50.34
14902;BME280;7542;49.078;9.194;2022-09-17T03:27:43;98297.53;;;17.31;49.91
14902;BME280;7542;49.078;9.194;2022-09-17T03:28:45;98292.81;;;17.33;50.63
14902;BME280;7542;49.078;9.194;2022-09-17T03:29:46;98288.56;;;17.32;49.83
14902;BME280;7542;49.078;9.194;2022-09-17T03:30:48;98301.00;;;17.31;50.23
14902;BME280;7542;49.078;9.194;2022-09-17T03:31:50;98291.19;;;17.32;49.73
14902;BME280;7542;49.078;9.194;2022-09-17T03:32:52;98294.66;;;17.32;50.58
14902;BME280;7542;49.078;9.194;2022-09-17T03:33:54;98290.97;;;17.33;50.30
14902;BME280;7542;49.078;9.194;2022-09-17T03:34:55;98296.50;;;17.32;49.87
14902;BME280;7542;49.078;9.194;2022-09-17T03:35:57;98299.97;;;17.32;50.31
14902;BME280;7542;49.078;9.194;2022-09-17T03:36:59;98297.53;;;17.31;49.79
14902;BME280;7542;49.078;9.194;2022-09-17T03:38:01;98298.34;;;17.31;49.91
14902;BME280;7542;49.078;9.194;2022-09-17T03:39:03;98299.38;;;17.30;50.58
14902;BME280;7542;49.078;9.194;2022-09-17T03:40:06;98297.75;;;17.29;49.74
14902;BME280;7542;49.078;9.194;2022-09-17T03:41:08;98304.91;;;17.29;49.83
14902;BME280;7542;49.078;9.194;2022-09-17T03:42:10;98296.94;;;17.29;50.63
14902;BME280;7542;49.078;9.194;2022-09-17T03:43:11;98298.56;;;17.30;50.63
14902;BME280;7542;49.078;9.194;2022-09-17T03:44:13;98296.94;;;17.29;50.59
14902;BME280;7542;49.078;9.194;2022-09-17T03:45:16;98298.78;;;17.28;50.17
14902;BME280;7542;49.078;9.194;2022-09-17T03:46:19;98296.38;;;17.27;50.78
14902;BME280;7542;49.078;9.194;2022-09-17T03:47:21;98295.34;;;17.28;50.24
14902;BME280;7542;49.078;9.194;2022-09-17T03:48:23;98292.91;;;17.26;50.61
14902;BME280;7542;49.078;9.194;2022-09-17T03:49:25;98297.19;;;17.27;50.73
14902;BME280;7542;49.078;9.194;2022-09-17T03:50:26;98305.34;;;17.26;50.79
14902;BME280;7542;49.078;9.194;2022-09-17T03:51:28;98303.69;;;17.25;50.19
14902;BME280;7542;49.078;9.194;2022-09-17T03:52:30;98306.56;;;17.23;49.84
14902;BME280;7542;49.078;9.194;2022-09-17T03:53:32;98306.78;;;17.22;50.43
14902;BME280;7542;49.078;9.194;2022-09-17T03:54:34;98309.22;;;17.23;50.65
14902;BME280;7542;49.078;9.194;2022-09-17T03:55:39;98304.94;;;17.22;50.72
14902;BME280;7542;49.078;9.194;2022-09-17T03:56:41;98307.81;;;17.21;49.88
14902;BME280;7542;49.078;9.194;2022-09-17T03:57:43;98305.97;;;17.21;50.02
14902;BME280;7542;49.078;9.194;2022-09-17T03:58:45;98315.34;;;17.24;50.10
14902;BME280;7542;49.078;9.194;2022-09-17T03:59:47;98314.75;;;17.22;49.82
14902;BME280;7542;49.078;9.194;2022-09-17T04:00:49;98310.47;;;17.21;50.07
14902;BME280;7542;49.078;9.194;2022-09-17T04:01:53;98314.16;;;17.20;50.48
14902;BME280;7542;49.078;9.194;2022-09-17T04:02:56;98316.59;;;17.21;50.28
14902;BME280;7542;49.078;9.194;2022-09-17T04:03:57;98318.44;;;17.21;50.19
14902;BME280;7542;49.078;9.194;2022-09-17T04:04:59;98310.91;;;17.18;49.79
14902;BME280;7542;49.078;9.194;2022-09-17T04:06:01;98317.03;;;17.18;50.08
14902;BME280;7542;49.078;9.194;2022-09-17T04:07:04;98320.50;;;17.19;50.59
14902;BME280;7542;49.078;9.194;2022-09-17T04:08:06;98318.06;;;17.17;50.26
14902;BME280;7542;49.078;9.194;2022-09-17T04:09:07;98324.16;;;17.18;49.89
14902;BME280;7542;49.078;9.194;2022-09-17T04:10:09;98323.59;;;17.16;49.84
14902;BME280;7542;49.078;9.194;2022-09-17T04:11:11;98323.59;;;17.16;49.89
14902;BME280;7542;49.078;9.194;2022-09-17T04:12:13;98321.94;;;17.15;49.82
14902;BME280;7542;49.078;9.194;2022-09-17T04:13:15;98323.78;;;17.14;50.80
14902;BME280;7542;49.078;9.194;2022-09-17T04:14:17;98325.84;;;17.12;49.80
14902;BME280;7542;49.078;9.194;2022-09-17T04:15:19;98324.00;;;17.13;49.91
14902;BME280;7542;49.078;9.194;2022-09-17T04:16:21;98326.06;;;17.10;50.39
14902;BME280;7542;49.078;9.194;2022-09-17T04:17:23;98327.91;;;17.10;50.83
14902;BME280;7542;49.078;9.194;2022-09-17T04:18:25;98329.50;;;17.11;50.82
14902;BME280;7542;49.078;9.194;2022-09-17T04:19:26;98328.94;;;17.09;50.37
14902;BME280;7542;49.078;9.194;2022-09-17T04:20:28;98321.22;;;17.07;50.00
14902;BME280;7542;49.078;9.194;2022-09-17T04:21:30;98323.03;;;17.07;49.88
14902;BME280;7542;49.078;9.194;2022-09-17T04:22:32;98322.47;;;17.05;49.72
14902;BME280;7542;49.078;9.194;2022-09-17T04:23:34;98317.16;;;17.05;50.34
14902;BME280;7542;49.078;9.194;2022-09-17T04:24:37;98317.16;;;17.05;50.69
14902;BME280;7542;49.078;9.194;2022-09-17T04:25:39;98318.16;;;17.04;50.15
14902;BME280;7542;49.078;9.194;2022-09-17T04:26:41;98318.38;;;17.02;49.84
14902;BME280;7542;49.078;9.194;2022-09-17T04:27:44;98322.06;;;17.01;50.49
14902;BME280;7542;49.078;9.194;2022-09-17T04:28:46;98317.56;;;17.02;50.11
14902;BME280;7542;49.078;9.194;2022-09-17T04:29:48;98311.91;;;16.98;50.25
14902;BME280;7542;49.078;9.194;2022-09-17T04:30:50;98310.88;;;16.99;50.45
14902;BME280;7542;49.078;9.194;2022-09-17T04:31:51;98320.06;;;16.97;50.73
14902;BME280;7542;49.078;9.194;2022-09-17T04:32:53;98313.97;;;16.96;50.61
14902;BME280;7542;49.078;9.194;2022-09-17T04:33:55;98314.19;;;16.95;50.60
14902;BME280;7542;49.078;9.194;2022-09-17T04:34:57;98318.69;;;16.94;50.27
14902;BME280;7542;49.078;9.194;2022-09-17T04:35:58;98313.56;;;16.93;50.12
14902;BME280;7542;49.078;9.194;2022-09-17T04:37:00;98318.06;;;16.92;50.23
14902;BME280;7542;49.078;9.194;2022-09-17T04:38:02;98315.63;;;16.91;50.05
14902;BME280;7542;49.078;9.194;2022-09-17T04:39:04;98324.59;;;16.90;50.84
14902;BME280;7542;49.078;9.194;2022-09-17T04:40:07;98320.94;;;16.91;50.80
14902;BME280;7542;49.078;9.194;2022-09-17T04:41:09;98320.13;;;16.90;50.09
14902;BME280;7542;49.078;9.194;2022-09-17T04:42:10;98317.91;;;16.87;50.57
14902;BME280;7542;49.078;9.194;2022-09-17T04:43:13;98318.72;;;16.88;50.32
14902;BME280;7542;49.078;9.194;2022-09-17T04:44:14;98324.25;;;16.86;50.27
14902;BME280;7542;49.078;9.194;2022-09-17T04:45:16;98315.47;;;16.86;50.51
14902;BME280;7542;49.078;9.194;2022-09-17T04:46:18;98324.25;;;16.86;49.86
14902;BME280;7542;49.078;9.194;2022-09-17T04:47:20;98321.59;;;16.86;50.41
14902;BME280;7542;49.078;9.194;2022-09-17T04:48:22;98321.59;;;16.86;50.56
14902;BME280;7542;49.078;9.194;2022-09-17T04:49:23;98328.13;;;16.84;50.24
14902;BME280;7542;49.078;9.194;2022-09-17T04:50:26;98330.56;;;16.85;50.07
14902;BME280;7542;49.078;9.194;2022-09-17T04:51:27;98331.81;;;16.83;49.94
14902;BME280;7542;49.078;9.194;2022-09-17T04:52:29;98334.47;;;16.83;49.73
14902;BME280;7542;49.078;9.194;2022-09-17T04:53:31;98329.34;;;16.81;50.79
14902;BME280;7542;49.078;9.194;2022-09-17T04:54:33;98335.47;;;16.81;50.42
14902;BME280;7542;49.078;9.194;2022-09-17T04:55:35;98341.56;;;16.82;49.77
14902;BME280;7542;49.078;9.194;2022-09-17T04:56:37;98344.22;;;16.82;50.40
14902;BME280;7542;49.078;9.194;2022-09-17T04:57:38;98343.41;;;16.81;49.48
14902;BME280;7542;49.078;9.194;2022-09-17T04:58:45;98340.97;;;16.80;50.26
14902;BME280;7542;49.078;9.194;2022-09-17T04:59:47;98343.84;;;16.78;50.35
14902;BME280;7542;49.078;9.194;2022-09-17T05:00:49;98350.97;;;16.78;50.91
14902;BME280;7542;49.078;9.194;2022-09-17T05:01:51;98344.06;;;16.77;49.88
14902;BME280;7542;49.078;9.194;2022-09-17T05:02:54;98343.03;;;16.78;50.40
14902;BME280;7542;49.078;9.194;2022-09-17T05:03:56;98346.72;;;16.77;50.75
14902;BME280;7542;49.078;9.194;2022-09-17T05:04:58;98343.25;;;16.76;49.58
14902;BME280;7542;49.078;9.194;2022-09-17T05:06:00;98341.03;;;16.73;50.23
14902;BME280;7542;49.078;9.194;2022-09-17T05:07:02;98348.75;;;16.75;50.79
14902;BME280;7542;49.078;9.194;2022-09-17T05:08:04;98344.28;;;16.75;50.51
14902;BME280;7542;49.078;9.194;2022-09-17T05:09:08;98349.56;;;16.75;50.79
14902;BME280;7542;49.078;9.194;2022-09-17T05:10:12;98346.13;;;16.75;50.50
14902;BME280;7542;49.078;9.194;2022-09-17T05:11:15;98343.47;;;16.75;50.14
14902;BME280;7542;49.078;9.194;2022-09-17T05:12:16;98347.97;;;16.74;50.49
14902;BME280;7542;49.078;9.194;2022-09-17T05:13:18;98346.34;;;16.73;50.53
14902;BME280;7542;49.078;9.194;2022-09-17T05:14:20;98343.69;;;16.73;50.21
14902;BME280;7542;49.078;9.194;2022-09-17T05:15:24;98349.78;;;16.74;49.95
14902;BME280;7542;49.078;9.194;2022-09-17T05:16:26;98342.06;;;16.72;49.94
14902;BME280;7542;49.078;9.194;2022-09-17T05:17:28;98339.44;;;16.72;50.63
14902;BME280;7542;49.078;9.194;2022-09-17T05:18:29;98345.53;;;16.73;49.83
14902;BME280;7542;49.078;9.194;2022-09-17T05:19:32;98347.38;;;16.72;49.78
14902;BME280;7542;49.078;9.194;2022-09-17T05:20:33;98351.00;;;16.71;49.96
14902;BME280;7542;49.078;9.194;2022-09-17T05:21:35;98346.97;;;16.69;50.96
14902;BME280;7542;49.078;9.194;2022-09-17T05:22:42;98353.88;;;16.70;50.20
14902;BME280;7542;49.078;9.194;2022-09-17T05:23:45;98354.91;;;16.69;50.84
14902;BME280;7542;49.078;9.194;2022-09-17T05:24:48;98362.03;;;16.68;49.92
14902;BME280;7542;49.078;9.194;2022-09-17T05:25:50;98364.88;;;16.67;50.06
14902;BME280;7542;49.078;9.194;2022-09-17T05:26:53;98367.75;;;16.65;50.32
14902;BME280;7542;49.078;9.194;2022-09-17T05:27:55;98364.06;;;16.66;50.59
14902;BME280;7542;49.078;9.194;2022-09-17T05:28:57;98367.75;;;16.65;50.08
14902;BME280;7542;49.078;9.194;2022-09-17T05:29:59;98372.00;;;16.66;51.04
14902;BME280;7542;49.078;9.194;2022-09-17T05:31:01;98365.91;;;16.66;50.22
14902;BME280;7542;49.078;9.194;2022-09-17T05:32:04;98369.34;;;16.66;51.07
14902;BME280;7542;49.078;9.194;2022-09-17T05:33:06;98365.91;;;16.66;51.08
14902;BME280;7542;49.078;9.194;2022-09-17T05:34:08;98374.66;;;16.66;50.71
14902;BME280;7542;49.078;9.194;2022-09-17T05:35:10;98366.72;;;16.66;51.20
14902;BME280;7542;49.078;9.194;2022-09-17T05:36:12;98367.53;;;16.67;50.91
14902;BME280;7542;49.078;9.194;2022-09-17T05:37:13;98372.00;;;16.66;51.01
14902;BME280;7542;49.078;9.194;2022-09-17T05:38:15;98360.59;;;16.66;51.54
14902;BME280;7542;49.078;9.194;2022-09-17T05:39:19;98367.34;;;16.68;50.94
14902;BME280;7542;49.078;9.194;2022-09-17T05:40:23;98365.91;;;16.66;51.48
14902;BME280;7542;49.078;9.194;2022-09-17T05:41:25;98379.94;;;16.66;51.28
14902;BME280;7542;49.078;9.194;2022-09-17T05:42:26;98376.28;;;16.67;50.86
14902;BME280;7542;49.078;9.194;2022-09-17T05:43:28;98367.53;;;16.67;50.43
14902;BME280;7542;49.078;9.194;2022-09-17T05:44:30;98372.63;;;16.68;50.91
14902;BME280;7542;49.078;9.194;2022-09-17T05:45:33;98374.47;;;16.68;50.87
14902;BME280;7542;49.078;9.194;2022-09-17T05:46:35;98373.44;;;16.69;51.40
14902;BME280;7542;49.078;9.194;2022-09-17T05:47:37;98369.97;;;16.68;50.80
14902;BME280;7542;49.078;9.194;2022-09-17T05:48:39;98370.78;;;16.69;50.64
14902;BME280;7542;49.078;9.194;2022-09-17T05:49:41;98374.25;;;16.69;50.85
14902;BME280;7542;49.078;9.194;2022-09-17T05:50:43;98376.09;;;16.69;50.49
14902;BME280;7542;49.078;9.194;2022-09-17T05:51:44;98374.25;;;16.69;50.52
14902;BME280;7542;49.078;9.194;2022-09-17T05:52:46;98382.19;;;16.69;51.22
14902;BME280;7542;49.078;9.194;2022-09-17T05:53:48;98379.75;;;16.68;50.93
14902;BME280;7542;49.078;9.194;2022-09-17T05:54:50;98378.72;;;16.69;50.63
14902;BME280;7542;49.078;9.194;2022-09-17T05:55:59;98378.50;;;16.70;51.44
14902;BME280;7542;49.078;9.194;2022-09-17T05:57:01;98387.25;;;16.71;51.19
14902;BME280;7542;49.078;9.194;2022-09-17T05:58:17;98380.75;;;16.73;51.58
14902;BME280;7542;49.078;9.194;2022-09-17T05:59:20;98382.78;;;16.71;50.60
14902;BME280;7542;49.078;9.194;2022-09-17T06:00:22;98388.28;;;16.70;50.73
14902;BME280;7542;49.078;9.194;2022-09-17T06:01:24;98386.66;;;16.69;50.89
14902;BME280;7542;49.078;9.194;2022-09-17T06:02:26;98385.66;;;16.70;51.55
14902;BME280;7542;49.078;9.194;2022-09-17T06:03:28;98390.34;;;16.68;51.12
14902;BME280;7542;49.078;9.194;2022-09-17T06:04:30;98391.16;;;16.68;50.93
14902;BME280;7542;49.078;9.194;2022-09-17T06:05:35;98388.28;;;16.70;51.54
14902;BME280;7542;49.078;9.194;2022-09-17T06:06:37;98390.94;;;16.70;51.00
14902;BME280;7542;49.078;9.194;2022-09-17T06:07:39;98376.91;;;16.69;51.43
14902;BME280;7542;49.078;9.194;2022-09-17T06:08:41;98390.94;;;16.70;51.65
14902;BME280;7542;49.078;9.194;2022-09-17T06:09:43;98387.06;;;16.72;50.62
14902;BME280;7542;49.078;9.194;2022-09-17T06:10:45;98383.00;;;16.70;51.66
14902;BME280;7542;49.078;9.194;2022-09-17T06:11:46;98389.91;;;16.71;51.22
14902;BME280;7542;49.078;9.194;2022-09-17T06:12:55;98387.06;;;16.72;51.32
14902;BME280;7542;49.078;9.194;2022-09-17T06:13:57;98389.72;;;16.72;51.18
14902;BME280;7542;49.078;9.194;2022-09-17T06:14:59;98395.03;;;16.72;51.06
14902;BME280;7542;49.078;9.194;2022-09-17T06:16:02;98402.16;;;16.72;50.90
14902;BME280;7542;49.078;9.194;2022-09-17T06:17:04;98394.22;;;16.72;51.38
14902;BME280;7542;49.078;9.194;2022-09-17T06:18:06;98397.84;;;16.71;50.95
14902;BME280;7542;49.078;9.194;2022-09-17T06:19:08;98394.22;;;16.72;51.37
14902;BME280;7542;49.078;9.194;2022-09-17T06:20:09;98396.84;;;16.72;51.28
14902;BME280;7542;49.078;9.194;2022-09-17T06:21:11;98403.16;;;16.71;51.64
14902;BME280;7542;49.078;9.194;2022-09-17T06:22:13;98400.50;;;16.71;50.81
14902;BME280;7542;49.078;9.194;2022-09-17T06:23:15;98409.47;;;16.70;51.20
14902;BME280;7542;49.078;9.194;2022-09-17T06:24:16;98408.66;;;16.69;50.94
14902;BME280;7542;49.078;9.194;2022-09-17T06:25:18;98411.91;;;16.71;51.10
14902;BME280;7542;49.078;9.194;2022-09-17T06:26:20;98412.75;;;16.72;51.28
14902;BME280;7542;49.078;9.194;2022-09-17T06:27:22;98408.44;;;16.71;50.99
14902;BME280;7542;49.078;9.194;2022-09-17T06:28:25;98405.59;;;16.72;51.50
14902;BME280;7542;49.078;9.194;2022-09-17T06:29:28;98408.44;;;16.71;51.07
14902;BME280;7542;49.078;9.194;2022-09-17T06:30:29;98403.97;;;16.71;51.54
14902;BME280;7542;49.078;9.194;2022-09-17T06:31:31;98406.81;;;16.70;51.47
14902;BME280;7542;49.078;9.194;2022-09-17T06:32:33;98404.81;;;16.72;50.70
14902;BME280;7542;49.078;9.194;2022-09-17T06:33:35;98403.38;;;16.69;51.05
14902;BME280;7542;49.078;9.194;2022-09-17T06:34:37;98408.25;;;16.72;50.87